sensor_id;sensor_type;location;lat;lon;timestamp;temperature;humidity
32476;DHT22;18929;48.008;10.882;2023-11-22T00:01:19;8.40;99.90
32476;DHT22;18929;48.008;10.882;2023-11-22T00:03:46;8.90;99.90
32476;DHT22;18929;48.008;10.882;2023-11-22T00:08:50;9.00;99.90
32476;DHT22;18929;48.008;10.882;2023-11-22T00:11:17;8.40;99.90
32476;DHT22;18929;48.008;10.882;2023-11-22T00:13:45;7.70;99.90
32476;DHT22;18929;48.008;10.882;2023-11-22T00:16:12;8.00;99.90
32476;DHT22;18929;48.008;10.882;2023-11-22T00:18:39;7.70;99.90
32476;DHT22;18929;48.008;10.882;2023-11-22T00:21:06;8.40;99.90
32476;DHT22;18929;48.008;10.882;2023-11-22T00:23:33;8.90;99.90
32476;DHT22;18929;48.008;10.882;2023-11-22T00:26:00;8.20;99.90
32476;DHT22;18929;48.008;10.882;2023-11-22T00:28:26;7.90;99.90
32476;DHT22;18929;48.008;10.882;2023-11-22T00:30:54;8.60;99.90
32476;DHT22;18929;48.008;10.882;2023-11-22T00:33:21;8.40;99.90
32476;DHT22;18929;48.008;10.882;2023-11-22T00:35:48;8.90;99.90
32476;DHT22;18929;48.008;10.882;2023-11-22T00:38:15;8.80;99.90
32476;DHT22;18929;48.008;10.882;2023-11-22T00:40:42;8.90;99.90
32476;DHT22;18929;48.008;10.882;2023-11-22T00:43:09;8.20;99.90
32476;DHT22;18929;48.008;10.882;2023-11-22T00:45:37;7.50;99.90
32476;DHT22;18929;48.008;10.882;2023-11-22T00:48:05;7.70;99.90
32476;DHT22;18929;48.008;10.882;2023-11-22T00:50:32;7.50;99.90
32476;DHT22;18929;48.008;10.882;2023-11-22T00:53:00;8.00;99.90
32476;DHT22;18929;48.008;10.882;2023-11-22T00:55:27;8.30;99.90
32476;DHT22;18929;48.008;10.882;2023-11-22T00:57:53;8.50;99.90
32476;DHT22;18929;48.008;10.882;2023-11-22T01:00:21;7.70;99.90
32476;DHT22;18929;48.008;10.882;2023-11-22T01:02:49;8.30;99.90
32476;DHT22;18929;48.008;10.882;2023-11-22T01:05:17;8.00;99.90
32476;DHT22;18929;48.008;10.882;2023-11-22T01:07:45;8.60;99.90
32476;DHT22;18929;48.008;10.882;2023-11-22T01:10:12;7.80;99.90
32476;DHT22;18929;48.008;10.882;2023-11-22T01:12:38;7.10;99.90
32476;DHT22;18929;48.008;10.882;2023-11-22T01:15:06;7.20;99.90
32476;DHT22;18929;48.008;10.882;2023-11-22T01:17:33;7.70;99.90
32476;DHT22;18929;48.008;10.882;2023-11-22T01:20:00;7.90;99.90
32476;DHT22;18929;48.008;10.882;2023-11-22T01:22:28;8.20;99.90
32476;DHT22;18929;48.008;10.882;2023-11-22T01:24:56;7.60;99.90
32476;DHT22;18929;48.008;10.882;2023-11-22T01:27:23;7.50;99.90
32476;DHT22;18929;48.008;10.882;2023-11-22T01:29:50;7.50;99.90
32476;DHT22;18929;48.008;10.882;2023-11-22T01:32:19;8.20;99.90
32476;DHT22;18929;48.008;10.882;2023-11-22T01:34:46;8.20;99.90
32476;DHT22;18929;48.008;10.882;2023-11-22T01:37:13;8.40;99.90
32476;DHT22;18929;48.008;10.882;2023-11-22T01:39:41;8.40;99.90
32476;DHT22;18929;48.008;10.882;2023-11-22T01:42:08;7.90;99.90
32476;DHT22;18929;48.008;10.882;2023-11-22T01:44:35;8.00;99.90
32476;DHT22;18929;48.008;10.882;2023-11-22T01:47:02;7.80;99.90
32476;DHT22;18929;48.008;10.882;2023-11-22T01:49:31;7.30;99.90
32476;DHT22;18929;48.008;10.882;2023-11-22T01:51:58;8.10;99.90
32476;DHT22;18929;48.008;10.882;2023-11-22T01:54:25;8.10;99.90
32476;DHT22;18929;48.008;10.882;2023-11-22T01:56:53;8.50;99.90
32476;DHT22;18929;48.008;10.882;2023-11-22T01:59:20;7.70;99.90
32476;DHT22;18929;48.008;10.882;2023-11-22T02:01:46;7.60;99.90
32476;DHT22;18929;48.008;10.882;2023-11-22T02:04:15;7.70;99.90
32476;DHT22;18929;48.008;10.882;2023-11-22T02:06:41;8.50;99.90
32476;DHT22;18929;48.008;10.882;2023-11-22T02:09:08;8.40;99.90
32476;DHT22;18929;48.008;10.882;2023-11-22T02:11:38;8.80;99.90
32476;DHT22;18929;48.008;10.882;2023-11-22T02:14:08;8.20;99.90
32476;DHT22;18929;48.008;10.882;2023-11-22T02:16:35;8.50;99.90
32476;DHT22;18929;48.008;10.882;2023-11-22T02:19:04;8.90;99.90
32476;DHT22;18929;48.008;10.882;2023-11-22T02:21:32;8.50;99.90
32476;DHT22;18929;48.008;10.882;2023-11-22T02:24:00;8.20;99.90
32476;DHT22;18929;48.008;10.882;2023-11-22T02:26:27;8.10;99.90
32476;DHT22;18929;48.008;10.882;2023-11-22T02:28:56;7.70;99.90
32476;DHT22;18929;48.008;10.882;2023-11-22T02:31:24;7.80;99.90
32476;DHT22;18929;48.008;10.882;2023-11-22T02:33:53;7.90;99.90
32476;DHT22;18929;48.008;10.882;2023-11-22T02:36:21;8.30;99.90
32476;DHT22;18929;48.008;10.882;2023-11-22T02:38:50;8.40;99.90
32476;DHT22;18929;48.008;10.882;2023-11-22T02:41:34;8.70;99.90
32476;DHT22;18929;48.008;10.882;2023-11-22T02:44:01;8.70;99.90
32476;DHT22;18929;48.008;10.882;2023-11-22T02:46:28;8.70;99.90
32476;DHT22;18929;48.008;10.882;2023-11-22T02:48:56;8.70;99.90
32476;DHT22;18929;48.008;10.882;2023-11-22T02:51:23;8.80;99.90
32476;DHT22;18929;48.008;10.882;2023-11-22T02:53:50;8.40;99.90
32476;DHT22;18929;48.008;10.882;2023-11-22T02:56:20;7.70;99.90
32476;DHT22;18929;48.008;10.882;2023-11-22T02:58:48;7.90;99.90
32476;DHT22;18929;48.008;10.882;2023-11-22T03:01:15;7.40;99.90
32476;DHT22;18929;48.008;10.882;2023-11-22T03:03:43;7.30;99.90
32476;DHT22;18929;48.008;10.882;2023-11-22T03:06:10;7.20;99.90
32476;DHT22;18929;48.008;10.882;2023-11-22T03:08:36;6.90;99.90
32476;DHT22;18929;48.008;10.882;2023-11-22T03:11:03;6.60;99.90
32476;DHT22;18929;48.008;10.882;2023-11-22T03:13:30;6.50;99.90
32476;DHT22;18929;48.008;10.882;2023-11-22T03:15:59;6.20;99.90
32476;DHT22;18929;48.008;10.882;2023-11-22T03:18:26;5.70;99.90
32476;DHT22;18929;48.008;10.882;2023-11-22T03:20:53;5.60;99.90
32476;DHT22;18929;48.008;10.882;2023-11-22T03:23:21;5.30;99.90
32476;DHT22;18929;48.008;10.882;2023-11-22T03:25:48;5.00;99.90
32476;DHT22;18929;48.008;10.882;2023-11-22T03:28:14;5.30;99.90
32476;DHT22;18929;48.008;10.882;2023-11-22T03:30:41;5.30;99.90
32476;DHT22;18929;48.008;10.882;2023-11-22T03:33:11;5.60;99.90
32476;DHT22;18929;48.008;10.882;2023-11-22T03:35:43;5.10;99.90
32476;DHT22;18929;48.008;10.882;2023-11-22T03:38:17;5.20;99.90
32476;DHT22;18929;48.008;10.882;2023-11-22T03:41:02;5.10;99.90
32476;DHT22;18929;48.008;10.882;2023-11-22T03:44:12;5.50;99.90
32476;DHT22;18929;48.008;10.882;2023-11-22T03:46:54;5.30;99.90
32476;DHT22;18929;48.008;10.882;2023-11-22T03:52:33;5.00;99.90
32476;DHT22;18929;48.008;10.882;2023-11-22T03:55:13;4.80;99.90
32476;DHT22;18929;48.008;10.882;2023-11-22T03:57:48;5.30;99.90
32476;DHT22;18929;48.008;10.882;2023-11-22T04:00:22;5.10;99.90
32476;DHT22;18929;48.008;10.882;2023-11-22T04:03:06;5.60;99.90
32476;DHT22;18929;48.008;10.882;2023-11-22T04:05:34;6.00;99.90
32476;DHT22;18929;48.008;10.882;2023-11-22T04:08:04;5.60;99.90
32476;DHT22;18929;48.008;10.882;2023-11-22T04:10:37;5.50;99.90
32476;DHT22;18929;48.008;10.882;2023-11-22T04:13:10;5.10;99.90
32476;DHT22;18929;48.008;10.882;2023-11-22T04:15:38;5.10;99.90
32476;DHT22;18929;48.008;10.882;2023-11-22T04:18:20;4.20;99.90
32476;DHT22;18929;48.008;10.882;2023-11-22T04:20:52;4.70;99.90
32476;DHT22;18929;48.008;10.882;2023-11-22T04:23:31;4.80;99.90
32476;DHT22;18929;48.008;10.882;2023-11-22T04:26:10;5.70;99.90
32476;DHT22;18929;48.008;10.882;2023-11-22T04:28:41;4.80;99.90
32476;DHT22;18929;48.008;10.882;2023-11-22T04:31:09;5.70;99.90
32476;DHT22;18929;48.008;10.882;2023-11-22T04:33:39;4.70;99.90
32476;DHT22;18929;48.008;10.882;2023-11-22T04:36:06;5.30;99.90
32476;DHT22;18929;48.008;10.882;2023-11-22T04:38:39;4.90;99.90
32476;DHT22;18929;48.008;10.882;2023-11-22T04:41:10;4.40;99.90
32476;DHT22;18929;48.008;10.882;2023-11-22T04:43:42;4.30;99.90
32476;DHT22;18929;48.008;10.882;2023-11-22T04:46:14;4.30;99.90
32476;DHT22;18929;48.008;10.882;2023-11-22T04:48:50;4.30;99.90
32476;DHT22;18929;48.008;10.882;2023-11-22T04:51:17;4.30;99.90
32476;DHT22;18929;48.008;10.882;2023-11-22T04:56:35;4.10;99.90
32476;DHT22;18929;48.008;10.882;2023-11-22T04:59:02;4.70;99.90
32476;DHT22;18929;48.008;10.882;2023-11-22T05:01:31;4.20;99.90
32476;DHT22;18929;48.008;10.882;2023-11-22T05:04:00;4.40;99.90
32476;DHT22;18929;48.008;10.882;2023-11-22T05:06:29;4.40;99.90
32476;DHT22;18929;48.008;10.882;2023-11-22T05:08:56;4.80;99.90
32476;DHT22;18929;48.008;10.882;2023-11-22T05:11:23;4.20;99.90
32476;DHT22;18929;48.008;10.882;2023-11-22T05:13:54;4.60;99.90
32476;DHT22;18929;48.008;10.882;2023-11-22T05:16:21;4.10;99.90
32476;DHT22;18929;48.008;10.882;2023-11-22T05:18:49;3.90;99.90
32476;DHT22;18929;48.008;10.882;2023-11-22T05:21:18;4.40;99.90
32476;DHT22;18929;48.008;10.882;2023-11-22T05:23:51;4.40;99.90
32476;DHT22;18929;48.008;10.882;2023-11-22T05:26:20;3.90;99.90
32476;DHT22;18929;48.008;10.882;2023-11-22T05:28:47;3.70;99.90
32476;DHT22;18929;48.008;10.882;2023-11-22T05:31:18;4.50;99.90
32476;DHT22;18929;48.008;10.882;2023-11-22T05:33:48;3.80;99.90
32476;DHT22;18929;48.008;10.882;2023-11-22T05:36:16;3.90;99.90
32476;DHT22;18929;48.008;10.882;2023-11-22T05:39:00;4.40;99.90
32476;DHT22;18929;48.008;10.882;2023-11-22T05:41:31;4.10;99.90
32476;DHT22;18929;48.008;10.882;2023-11-22T05:44:01;4.90;99.90
32476;DHT22;18929;48.008;10.882;2023-11-22T05:49:14;4.20;99.90
32476;DHT22;18929;48.008;10.882;2023-11-22T05:51:43;4.30;99.90
32476;DHT22;18929;48.008;10.882;2023-11-22T05:54:16;3.80;99.90
32476;DHT22;18929;48.008;10.882;2023-11-22T05:56:46;3.90;99.90
32476;DHT22;18929;48.008;10.882;2023-11-22T05:59:13;4.70;99.90
32476;DHT22;18929;48.008;10.882;2023-11-22T06:01:44;3.70;99.90
32476;DHT22;18929;48.008;10.882;2023-11-22T06:04:15;3.80;99.90
32476;DHT22;18929;48.008;10.882;2023-11-22T06:06:45;4.10;99.90
32476;DHT22;18929;48.008;10.882;2023-11-22T06:09:15;4.40;99.90
32476;DHT22;18929;48.008;10.882;2023-11-22T06:11:46;4.60;99.90
32476;DHT22;18929;48.008;10.882;2023-11-22T06:14:14;5.10;99.90
32476;DHT22;18929;48.008;10.882;2023-11-22T06:16:47;4.20;99.90
32476;DHT22;18929;48.008;10.882;2023-11-22T06:22:30;4.30;99.90
32476;DHT22;18929;48.008;10.882;2023-11-22T06:25:02;4.40;99.90
32476;DHT22;18929;48.008;10.882;2023-11-22T06:27:45;3.80;99.90
32476;DHT22;18929;48.008;10.882;2023-11-22T06:30:30;4.30;99.90
32476;DHT22;18929;48.008;10.882;2023-11-22T06:32:57;4.40;99.90
32476;DHT22;18929;48.008;10.882;2023-11-22T06:35:25;4.10;99.90
32476;DHT22;18929;48.008;10.882;2023-11-22T06:37:58;4.00;99.90
32476;DHT22;18929;48.008;10.882;2023-11-22T06:40:27;4.30;99.90
32476;DHT22;18929;48.008;10.882;2023-11-22T06:42:55;4.60;99.90
32476;DHT22;18929;48.008;10.882;2023-11-22T06:45:22;5.50;99.90
32476;DHT22;18929;48.008;10.882;2023-11-22T06:47:49;6.10;99.90
32476;DHT22;18929;48.008;10.882;2023-11-22T06:50:16;5.10;99.90
32476;DHT22;18929;48.008;10.882;2023-11-22T06:52:43;4.30;99.90
32476;DHT22;18929;48.008;10.882;2023-11-22T06:55:14;4.90;99.90
32476;DHT22;18929;48.008;10.882;2023-11-22T06:57:40;4.60;99.90
32476;DHT22;18929;48.008;10.882;2023-11-22T07:00:08;5.40;99.90
32476;DHT22;18929;48.008;10.882;2023-11-22T07:02:35;5.70;99.90
32476;DHT22;18929;48.008;10.882;2023-11-22T07:05:02;5.60;99.90
32476;DHT22;18929;48.008;10.882;2023-11-22T07:07:33;4.90;99.90
32476;DHT22;18929;48.008;10.882;2023-11-22T07:10:00;4.60;99.90
32476;DHT22;18929;48.008;10.882;2023-11-22T07:12:28;5.40;99.90
32476;DHT22;18929;48.008;10.882;2023-11-22T07:14:55;6.10;99.90
32476;DHT22;18929;48.008;10.882;2023-11-22T07:17:22;6.40;99.90
32476;DHT22;18929;48.008;10.882;2023-11-22T07:19:49;5.40;99.90
32476;DHT22;18929;48.008;10.882;2023-11-22T07:22:17;6.10;99.90
32476;DHT22;18929;48.008;10.882;2023-11-22T07:24:45;6.30;99.90
32476;DHT22;18929;48.008;10.882;2023-11-22T07:27:13;6.50;99.90
32476;DHT22;18929;48.008;10.882;2023-11-22T07:29:41;6.00;99.90
32476;DHT22;18929;48.008;10.882;2023-11-22T07:32:08;5.60;99.90
32476;DHT22;18929;48.008;10.882;2023-11-22T07:34:36;5.20;99.90
32476;DHT22;18929;48.008;10.882;2023-11-22T07:37:03;5.20;99.90
32476;DHT22;18929;48.008;10.882;2023-11-22T07:39:30;5.40;99.90
32476;DHT22;18929;48.008;10.882;2023-11-22T07:41:57;6.10;99.90
32476;DHT22;18929;48.008;10.882;2023-11-22T07:44:24;5.70;99.90
32476;DHT22;18929;48.008;10.882;2023-11-22T07:46:52;5.70;99.90
32476;DHT22;18929;48.008;10.882;2023-11-22T07:49:28;6.10;99.90
32476;DHT22;18929;48.008;10.882;2023-11-22T07:51:55;5.60;99.90
32476;DHT22;18929;48.008;10.882;2023-11-22T07:54:22;4.10;99.90
32476;DHT22;18929;48.008;10.882;2023-11-22T07:56:49;3.90;99.90
32476;DHT22;18929;48.008;10.882;2023-11-22T07:59:17;4.50;99.90
32476;DHT22;18929;48.008;10.882;2023-11-22T08:01:44;4.60;99.90
32476;DHT22;18929;48.008;10.882;2023-11-22T08:04:15;3.60;99.90
32476;DHT22;18929;48.008;10.882;2023-11-22T08:06:42;3.70;99.90
32476;DHT22;18929;48.008;10.882;2023-11-22T08:09:09;3.70;99.90
32476;DHT22;18929;48.008;10.882;2023-11-22T08:11:36;3.30;99.90
32476;DHT22;18929;48.008;10.882;2023-11-22T08:14:03;4.10;99.90
32476;DHT22;18929;48.008;10.882;2023-11-22T08:16:31;3.80;99.90
32476;DHT22;18929;48.008;10.882;2023-11-22T08:19:03;3.80;99.90
32476;DHT22;18929;48.008;10.882;2023-11-22T08:21:32;3.00;99.90
32476;DHT22;18929;48.008;10.882;2023-11-22T08:23:59;3.40;99.90
32476;DHT22;18929;48.008;10.882;2023-11-22T08:26:26;2.40;99.90
32476;DHT22;18929;48.008;10.882;2023-11-22T08:28:53;2.60;99.90
32476;DHT22;18929;48.008;10.882;2023-11-22T08:31:20;3.10;99.90
32476;DHT22;18929;48.008;10.882;2023-11-22T08:33:47;2.70;99.90
32476;DHT22;18929;48.008;10.882;2023-11-22T08:36:14;2.60;99.90
32476;DHT22;18929;48.008;10.882;2023-11-22T08:38:43;2.70;99.90
32476;DHT22;18929;48.008;10.882;2023-11-22T08:41:10;3.20;99.90
32476;DHT22;18929;48.008;10.882;2023-11-22T08:43:39;2.80;99.90
32476;DHT22;18929;48.008;10.882;2023-11-22T08:46:12;2.60;99.90
32476;DHT22;18929;48.008;10.882;2023-11-22T08:48:39;2.20;99.90
32476;DHT22;18929;48.008;10.882;2023-11-22T08:51:06;1.90;99.90
32476;DHT22;18929;48.008;10.882;2023-11-22T08:53:33;1.90;99.90
32476;DHT22;18929;48.008;10.882;2023-11-22T08:56:02;2.40;99.90
32476;DHT22;18929;48.008;10.882;2023-11-22T08:58:31;2.80;99.90
32476;DHT22;18929;48.008;10.882;2023-11-22T09:00:59;3.30;99.90
32476;DHT22;18929;48.008;10.882;2023-11-22T09:03:25;3.00;99.90
32476;DHT22;18929;48.008;10.882;2023-11-22T09:05:53;2.20;99.90
32476;DHT22;18929;48.008;10.882;2023-11-22T09:08:20;1.90;99.90
32476;DHT22;18929;48.008;10.882;2023-11-22T09:10:47;2.80;99.90
32476;DHT22;18929;48.008;10.882;2023-11-22T09:13:17;3.60;99.90
32476;DHT22;18929;48.008;10.882;2023-11-22T09:15:50;3.90;99.90
32476;DHT22;18929;48.008;10.882;2023-11-22T09:18:17;4.10;99.90
32476;DHT22;18929;48.008;10.882;2023-11-22T09:20:44;4.60;99.90
32476;DHT22;18929;48.008;10.882;2023-11-22T09:23:11;3.10;99.90
32476;DHT22;18929;48.008;10.882;2023-11-22T09:25:39;2.70;99.90
32476;DHT22;18929;48.008;10.882;2023-11-22T09:28:06;2.40;99.90
32476;DHT22;18929;48.008;10.882;2023-11-22T09:30:35;2.40;99.90
32476;DHT22;18929;48.008;10.882;2023-11-22T09:33:04;2.10;99.90
32476;DHT22;18929;48.008;10.882;2023-11-22T09:35:32;2.70;99.90
32476;DHT22;18929;48.008;10.882;2023-11-22T09:37:59;2.80;99.90
32476;DHT22;18929;48.008;10.882;2023-11-22T09:40:26;3.20;99.90
32476;DHT22;18929;48.008;10.882;2023-11-22T09:42:55;2.00;99.90
32476;DHT22;18929;48.008;10.882;2023-11-22T09:45:23;1.80;99.90
32476;DHT22;18929;48.008;10.882;2023-11-22T09:47:52;2.30;99.90
32476;DHT22;18929;48.008;10.882;2023-11-22T09:50:19;2.40;99.90
32476;DHT22;18929;48.008;10.882;2023-11-22T09:52:47;3.10;99.90
32476;DHT22;18929;48.008;10.882;2023-11-22T09:55:16;2.00;99.90
32476;DHT22;18929;48.008;10.882;2023-11-22T09:57:43;2.50;99.90
32476;DHT22;18929;48.008;10.882;2023-11-22T10:00:11;2.80;99.90
32476;DHT22;18929;48.008;10.882;2023-11-22T10:02:39;2.70;99.90
32476;DHT22;18929;48.008;10.882;2023-11-22T10:05:08;3.00;99.90
32476;DHT22;18929;48.008;10.882;2023-11-22T10:07:35;3.50;99.90
32476;DHT22;18929;48.008;10.882;2023-11-22T10:10:03;3.50;99.90
32476;DHT22;18929;48.008;10.882;2023-11-22T10:12:32;3.00;99.90
32476;DHT22;18929;48.008;10.882;2023-11-22T10:15:12;3.00;99.90
32476;DHT22;18929;48.008;10.882;2023-11-22T10:17:39;3.00;99.90
32476;DHT22;18929;48.008;10.882;2023-11-22T10:20:08;2.80;99.90
32476;DHT22;18929;48.008;10.882;2023-11-22T10:22:43;2.90;99.90
32476;DHT22;18929;48.008;10.882;2023-11-22T10:25:10;2.90;99.90
32476;DHT22;18929;48.008;10.882;2023-11-22T10:27:38;3.20;99.90
32476;DHT22;18929;48.008;10.882;2023-11-22T10:30:06;2.90;99.90
32476;DHT22;18929;48.008;10.882;2023-11-22T10:32:36;3.50;99.90
32476;DHT22;18929;48.008;10.882;2023-11-22T10:35:03;3.90;99.90
32476;DHT22;18929;48.008;10.882;2023-11-22T10:37:32;3.60;99.90
32476;DHT22;18929;48.008;10.882;2023-11-22T10:39:59;3.40;99.90
32476;DHT22;18929;48.008;10.882;2023-11-22T10:42:26;3.40;99.90
32476;DHT22;18929;48.008;10.882;2023-11-22T10:44:53;3.40;99.90
32476;DHT22;18929;48.008;10.882;2023-11-22T10:47:22;4.30;99.90
32476;DHT22;18929;48.008;10.882;2023-11-22T10:49:50;4.00;99.90
32476;DHT22;18929;48.008;10.882;2023-11-22T10:52:17;4.30;99.90
32476;DHT22;18929;48.008;10.882;2023-11-22T10:54:49;4.70;99.90
32476;DHT22;18929;48.008;10.882;2023-11-22T10:57:16;4.90;99.90
32476;DHT22;18929;48.008;10.882;2023-11-22T10:59:45;5.20;99.90
32476;DHT22;18929;48.008;10.882;2023-11-22T11:05:10;3.90;99.90
32476;DHT22;18929;48.008;10.882;2023-11-22T11:07:41;3.90;99.90
32476;DHT22;18929;48.008;10.882;2023-11-22T11:10:10;4.10;99.90
32476;DHT22;18929;48.008;10.882;2023-11-22T11:12:37;3.20;99.90
32476;DHT22;18929;48.008;10.882;2023-11-22T11:15:05;3.50;99.90
32476;DHT22;18929;48.008;10.882;2023-11-22T11:17:33;3.50;99.90
32476;DHT22;18929;48.008;10.882;2023-11-22T11:20:01;3.80;99.90
32476;DHT22;18929;48.008;10.882;2023-11-22T11:22:32;3.70;99.90
32476;DHT22;18929;48.008;10.882;2023-11-22T11:25:00;4.70;99.90
32476;DHT22;18929;48.008;10.882;2023-11-22T11:27:28;4.60;99.90
32476;DHT22;18929;48.008;10.882;2023-11-22T11:29:56;4.40;99.90
32476;DHT22;18929;48.008;10.882;2023-11-22T11:32:30;4.80;99.90
32476;DHT22;18929;48.008;10.882;2023-11-22T11:34:57;4.10;99.90
32476;DHT22;18929;48.008;10.882;2023-11-22T11:37:25;4.10;99.90
32476;DHT22;18929;48.008;10.882;2023-11-22T11:39:52;4.90;99.90
32476;DHT22;18929;48.008;10.882;2023-11-22T11:42:19;4.10;99.90
32476;DHT22;18929;48.008;10.882;2023-11-22T11:45:07;3.70;99.90
32476;DHT22;18929;48.008;10.882;2023-11-22T11:47:35;4.20;99.90
32476;DHT22;18929;48.008;10.882;2023-11-22T11:50:02;4.50;99.90
32476;DHT22;18929;48.008;10.882;2023-11-22T11:52:30;4.20;99.90
32476;DHT22;18929;48.008;10.882;2023-11-22T11:54:57;4.40;99.90
32476;DHT22;18929;48.008;10.882;2023-11-22T11:57:25;3.40;99.90
32476;DHT22;18929;48.008;10.882;2023-11-22T11:59:52;3.10;99.90
32476;DHT22;18929;48.008;10.882;2023-11-22T12:02:22;2.60;99.90
32476;DHT22;18929;48.008;10.882;2023-11-22T12:04:49;4.00;99.90
32476;DHT22;18929;48.008;10.882;2023-11-22T12:07:15;3.40;99.90
32476;DHT22;18929;48.008;10.882;2023-11-22T12:09:43;3.90;99.90
32476;DHT22;18929;48.008;10.882;2023-11-22T12:12:11;3.80;99.90
32476;DHT22;18929;48.008;10.882;2023-11-22T12:14:38;4.50;99.90
32476;DHT22;18929;48.008;10.882;2023-11-22T12:17:14;4.70;99.90
32476;DHT22;18929;48.008;10.882;2023-11-22T12:19:43;3.90;99.90
32476;DHT22;18929;48.008;10.882;2023-11-22T12:22:10;4.00;99.90
32476;DHT22;18929;48.008;10.882;2023-11-22T12:24:37;4.10;99.90
32476;DHT22;18929;48.008;10.882;2023-11-22T12:27:04;3.70;99.90
32476;DHT22;18929;48.008;10.882;2023-11-22T12:29:35;4.10;99.90
32476;DHT22;18929;48.008;10.882;2023-11-22T12:32:03;3.80;99.90
32476;DHT22;18929;48.008;10.882;2023-11-22T12:34:30;3.60;99.90
32476;DHT22;18929;48.008;10.882;2023-11-22T12:37:00;4.10;99.90
32476;DHT22;18929;48.008;10.882;2023-11-22T12:39:26;3.90;99.90
32476;DHT22;18929;48.008;10.882;2023-11-22T12:41:53;4.30;99.90
32476;DHT22;18929;48.008;10.882;2023-11-22T12:44:23;3.60;99.90
32476;DHT22;18929;48.008;10.882;2023-11-22T12:46:50;4.50;99.90
32476;DHT22;18929;48.008;10.882;2023-11-22T12:49:22;3.40;99.90
32476;DHT22;18929;48.008;10.882;2023-11-22T12:51:49;4.30;99.90
32476;DHT22;18929;48.008;10.882;2023-11-22T12:54:18;4.40;99.90
32476;DHT22;18929;48.008;10.882;2023-11-22T12:56:47;4.40;99.90
32476;DHT22;18929;48.008;10.882;2023-11-22T12:59:15;3.50;99.90
32476;DHT22;18929;48.008;10.882;2023-11-22T13:01:43;3.50;99.90
32476;DHT22;18929;48.008;10.882;2023-11-22T13:04:10;4.60;99.90
32476;DHT22;18929;48.008;10.882;2023-11-22T13:06:37;5.20;99.90
32476;DHT22;18929;48.008;10.882;2023-11-22T13:09:04;5.00;99.90
32476;DHT22;18929;48.008;10.882;2023-11-22T13:11:33;5.50;99.90
32476;DHT22;18929;48.008;10.882;2023-11-22T13:14:00;4.70;99.90
32476;DHT22;18929;48.008;10.882;2023-11-22T13:16:27;3.90;99.90
32476;DHT22;18929;48.008;10.882;2023-11-22T13:18:53;3.00;99.90
32476;DHT22;18929;48.008;10.882;2023-11-22T13:21:20;3.80;99.90
32476;DHT22;18929;48.008;10.882;2023-11-22T13:23:47;3.50;99.90
32476;DHT22;18929;48.008;10.882;2023-11-22T13:26:15;3.90;99.90
32476;DHT22;18929;48.008;10.882;2023-11-22T13:28:43;3.60;99.90
32476;DHT22;18929;48.008;10.882;2023-11-22T13:31:10;3.90;99.90
32476;DHT22;18929;48.008;10.882;2023-11-22T13:33:38;3.20;99.90
32476;DHT22;18929;48.008;10.882;2023-11-22T13:36:09;3.50;99.90
32476;DHT22;18929;48.008;10.882;2023-11-22T13:38:36;4.40;99.90
32476;DHT22;18929;48.008;10.882;2023-11-22T13:41:04;3.80;99.90
32476;DHT22;18929;48.008;10.882;2023-11-22T13:43:31;4.70;99.90
32476;DHT22;18929;48.008;10.882;2023-11-22T13:46:01;3.90;99.90
32476;DHT22;18929;48.008;10.882;2023-11-22T13:48:28;3.70;99.90
32476;DHT22;18929;48.008;10.882;2023-11-22T13:50:54;3.60;99.90
32476;DHT22;18929;48.008;10.882;2023-11-22T13:53:21;4.00;99.90
32476;DHT22;18929;48.008;10.882;2023-11-22T13:55:48;4.10;99.90
32476;DHT22;18929;48.008;10.882;2023-11-22T13:58:17;3.80;99.90
32476;DHT22;18929;48.008;10.882;2023-11-22T14:00:45;3.70;99.90
32476;DHT22;18929;48.008;10.882;2023-11-22T14:03:15;4.00;99.90
32476;DHT22;18929;48.008;10.882;2023-11-22T14:05:41;4.50;99.90
32476;DHT22;18929;48.008;10.882;2023-11-22T14:08:08;4.60;99.90
32476;DHT22;18929;48.008;10.882;2023-11-22T14:10:35;4.30;99.90
32476;DHT22;18929;48.008;10.882;2023-11-22T14:13:02;3.80;99.90
32476;DHT22;18929;48.008;10.882;2023-11-22T14:15:30;3.70;99.90
32476;DHT22;18929;48.008;10.882;2023-11-22T14:17:57;3.60;99.90
32476;DHT22;18929;48.008;10.882;2023-11-22T14:20:25;4.40;99.90
32476;DHT22;18929;48.008;10.882;2023-11-22T14:22:52;4.70;99.90
32476;DHT22;18929;48.008;10.882;2023-11-22T14:25:19;4.80;99.90
32476;DHT22;18929;48.008;10.882;2023-11-22T14:27:55;4.90;99.90
32476;DHT22;18929;48.008;10.882;2023-11-22T14:30:22;5.00;99.90
32476;DHT22;18929;48.008;10.882;2023-11-22T14:32:51;4.60;99.90
32476;DHT22;18929;48.008;10.882;2023-11-22T14:35:18;4.00;99.90
32476;DHT22;18929;48.008;10.882;2023-11-22T14:37:48;4.40;99.90
32476;DHT22;18929;48.008;10.882;2023-11-22T14:40:18;4.80;99.90
32476;DHT22;18929;48.008;10.882;2023-11-22T14:42:46;4.60;99.90
32476;DHT22;18929;48.008;10.882;2023-11-22T14:45:15;4.90;99.90
32476;DHT22;18929;48.008;10.882;2023-11-22T14:47:45;4.90;99.90
32476;DHT22;18929;48.008;10.882;2023-11-22T14:50:12;4.80;99.90
32476;DHT22;18929;48.008;10.882;2023-11-22T14:52:41;4.80;99.90
32476;DHT22;18929;48.008;10.882;2023-11-22T14:55:10;5.10;99.90
32476;DHT22;18929;48.008;10.882;2023-11-22T14:57:38;4.60;99.90
32476;DHT22;18929;48.008;10.882;2023-11-22T15:00:05;4.90;99.90
32476;DHT22;18929;48.008;10.882;2023-11-22T15:02:35;5.10;99.90
32476;DHT22;18929;48.008;10.882;2023-11-22T15:05:02;5.20;99.90
32476;DHT22;18929;48.008;10.882;2023-11-22T15:07:29;4.70;99.90
32476;DHT22;18929;48.008;10.882;2023-11-22T15:09:56;4.70;99.90
32476;DHT22;18929;48.008;10.882;2023-11-22T15:12:24;4.30;99.90
32476;DHT22;18929;48.008;10.882;2023-11-22T15:14:55;4.90;99.90
32476;DHT22;18929;48.008;10.882;2023-11-22T15:17:22;4.60;99.90
32476;DHT22;18929;48.008;10.882;2023-11-22T15:19:49;4.90;99.90
32476;DHT22;18929;48.008;10.882;2023-11-22T15:22:16;3.90;99.90
32476;DHT22;18929;48.008;10.882;2023-11-22T15:24:43;4.00;99.90
32476;DHT22;18929;48.008;10.882;2023-11-22T15:27:10;4.50;99.90
32476;DHT22;18929;48.008;10.882;2023-11-22T15:29:39;4.90;99.90
32476;DHT22;18929;48.008;10.882;2023-11-22T15:32:06;4.40;99.90
32476;DHT22;18929;48.008;10.882;2023-11-22T15:34:32;4.50;99.90
32476;DHT22;18929;48.008;10.882;2023-11-22T15:36:59;5.00;99.90
32476;DHT22;18929;48.008;10.882;2023-11-22T15:39:26;5.10;99.90
32476;DHT22;18929;48.008;10.882;2023-11-22T15:41:53;4.70;99.90
32476;DHT22;18929;48.008;10.882;2023-11-22T15:44:27;4.10;99.90
32476;DHT22;18929;48.008;10.882;2023-11-22T15:46:56;4.90;99.90
32476;DHT22;18929;48.008;10.882;2023-11-22T15:49:22;5.20;99.90
32476;DHT22;18929;48.008;10.882;2023-11-22T15:51:49;5.40;99.90
32476;DHT22;18929;48.008;10.882;2023-11-22T15:54:16;5.50;99.90
32476;DHT22;18929;48.008;10.882;2023-11-22T15:56:43;5.40;99.90